sensor_id;sensor_type;location;lat;lon;timestamp;temperature;humidity
28189;DHT22;15471;51.166;4.470;2023-02-12T00:01:00;8.70;99.90
28189;DHT22;15471;51.166;4.470;2023-02-12T00:03:26;8.70;99.90
28189;DHT22;15471;51.166;4.470;2023-02-12T00:05:52;8.70;99.90
28189;DHT22;15471;51.166;4.470;2023-02-12T00:08:18;8.60;99.90
28189;DHT22;15471;51.166;4.470;2023-02-12T00:10:44;8.70;99.90
28189;DHT22;15471;51.166;4.470;2023-02-12T00:13:10;8.70;99.90
28189;DHT22;15471;51.166;4.470;2023-02-12T00:15:40;8.60;99.90
28189;DHT22;15471;51.166;4.470;2023-02-12T00:18:06;8.60;99.90
28189;DHT22;15471;51.166;4.470;2023-02-12T00:20:32;8.60;99.90
28189;DHT22;15471;51.166;4.470;2023-02-12T00:22:58;8.60;99.90
28189;DHT22;15471;51.166;4.470;2023-02-12T00:25:24;8.60;99.90
28189;DHT22;15471;51.166;4.470;2023-02-12T00:27:49;8.40;99.90
28189;DHT22;15471;51.166;4.470;2023-02-12T00:30:37;8.40;99.90
28189;DHT22;15471;51.166;4.470;2023-02-12T00:33:03;8.40;99.90
28189;DHT22;15471;51.166;4.470;2023-02-12T00:35:29;8.40;99.90
28189;DHT22;15471;51.166;4.470;2023-02-12T00:37:55;8.40;99.90
28189;DHT22;15471;51.166;4.470;2023-02-12T00:40:21;8.50;99.90
28189;DHT22;15471;51.166;4.470;2023-02-12T00:42:47;8.60;99.90
28189;DHT22;15471;51.166;4.470;2023-02-12T00:45:13;8.60;99.90
28189;DHT22;15471;51.166;4.470;2023-02-12T00:47:38;8.70;99.90
28189;DHT22;15471;51.166;4.470;2023-02-12T00:50:05;8.70;99.90
28189;DHT22;15471;51.166;4.470;2023-02-12T00:52:31;8.70;99.90
28189;DHT22;15471;51.166;4.470;2023-02-12T00:54:56;8.70;99.90
28189;DHT22;15471;51.166;4.470;2023-02-12T00:57:22;8.60;99.90
28189;DHT22;15471;51.166;4.470;2023-02-12T00:59:48;8.70;99.90
28189;DHT22;15471;51.166;4.470;2023-02-12T01:02:16;8.60;99.90
28189;DHT22;15471;51.166;4.470;2023-02-12T01:04:43;8.60;99.90
28189;DHT22;15471;51.166;4.470;2023-02-12T01:07:08;8.60;99.90
28189;DHT22;15471;51.166;4.470;2023-02-12T01:09:35;8.70;99.90
28189;DHT22;15471;51.166;4.470;2023-02-12T01:12:01;8.70;99.90
28189;DHT22;15471;51.166;4.470;2023-02-12T01:14:27;8.70;99.90
28189;DHT22;15471;51.166;4.470;2023-02-12T01:16:53;8.60;99.90
28189;DHT22;15471;51.166;4.470;2023-02-12T01:19:19;8.60;99.90
28189;DHT22;15471;51.166;4.470;2023-02-12T01:21:45;8.60;99.90
28189;DHT22;15471;51.166;4.470;2023-02-12T01:24:10;8.60;99.90
28189;DHT22;15471;51.166;4.470;2023-02-12T01:26:36;8.60;99.90
28189;DHT22;15471;51.166;4.470;2023-02-12T01:29:05;8.60;99.90
28189;DHT22;15471;51.166;4.470;2023-02-12T01:31:35;8.40;99.90
28189;DHT22;15471;51.166;4.470;2023-02-12T01:34:02;8.50;99.90
28189;DHT22;15471;51.166;4.470;2023-02-12T01:36:30;8.50;99.90
28189;DHT22;15471;51.166;4.470;2023-02-12T01:38:56;8.30;99.90
28189;DHT22;15471;51.166;4.470;2023-02-12T01:41:35;8.40;99.90
28189;DHT22;15471;51.166;4.470;2023-02-12T01:44:09;8.40;99.90
28189;DHT22;15471;51.166;4.470;2023-02-12T01:46:35;8.40;99.90
28189;DHT22;15471;51.166;4.470;2023-02-12T01:49:02;8.50;99.90
28189;DHT22;15471;51.166;4.470;2023-02-12T01:51:30;8.50;99.90
28189;DHT22;15471;51.166;4.470;2023-02-12T01:54:00;8.60;99.90
28189;DHT22;15471;51.166;4.470;2023-02-12T01:56:28;8.60;99.90
28189;DHT22;15471;51.166;4.470;2023-02-12T01:58:54;8.50;99.90
28189;DHT22;15471;51.166;4.470;2023-02-12T02:01:25;8.50;99.90
28189;DHT22;15471;51.166;4.470;2023-02-12T02:03:54;8.50;99.90
28189;DHT22;15471;51.166;4.470;2023-02-12T02:06:26;8.50;99.90
28189;DHT22;15471;51.166;4.470;2023-02-12T02:08:53;8.60;99.90
28189;DHT22;15471;51.166;4.470;2023-02-12T02:11:20;8.50;99.90
28189;DHT22;15471;51.166;4.470;2023-02-12T02:14:04;8.40;99.90
28189;DHT22;15471;51.166;4.470;2023-02-12T02:44:47;8.40;99.90
28189;DHT22;15471;51.166;4.470;2023-02-12T02:47:17;8.40;99.90
28189;DHT22;15471;51.166;4.470;2023-02-12T02:50:06;8.50;99.90
28189;DHT22;15471;51.166;4.470;2023-02-12T02:53:00;8.50;99.90
28189;DHT22;15471;51.166;4.470;2023-02-12T02:55:32;8.50;99.90
28189;DHT22;15471;51.166;4.470;2023-02-12T02:58:05;8.60;99.90
28189;DHT22;15471;51.166;4.470;2023-02-12T03:00:43;8.60;99.90
28189;DHT22;15471;51.166;4.470;2023-02-12T03:05:49;8.60;99.90
28189;DHT22;15471;51.166;4.470;2023-02-12T03:08:26;8.50;99.90
28189;DHT22;15471;51.166;4.470;2023-02-12T03:10:59;8.50;99.90
28189;DHT22;15471;51.166;4.470;2023-02-12T03:13:33;8.60;99.90
28189;DHT22;15471;51.166;4.470;2023-02-12T03:19:22;8.70;99.90
28189;DHT22;15471;51.166;4.470;2023-02-12T03:21:51;8.70;99.90
28189;DHT22;15471;51.166;4.470;2023-02-12T03:24:35;8.60;99.90
28189;DHT22;15471;51.166;4.470;2023-02-12T03:27:31;8.60;99.90
28189;DHT22;15471;51.166;4.470;2023-02-12T03:29:59;8.60;99.90
28189;DHT22;15471;51.166;4.470;2023-02-12T03:32:35;8.60;99.90
28189;DHT22;15471;51.166;4.470;2023-02-12T03:37:55;8.50;99.90
28189;DHT22;15471;51.166;4.470;2023-02-12T03:43:37;8.50;99.90
28189;DHT22;15471;51.166;4.470;2023-02-12T03:49:22;8.30;99.90
28189;DHT22;15471;51.166;4.470;2023-02-12T03:51:51;8.30;99.90
28189;DHT22;15471;51.166;4.470;2023-02-12T03:54:20;8.40;99.90
28189;DHT22;15471;51.166;4.470;2023-02-12T03:59:21;8.20;99.90
28189;DHT22;15471;51.166;4.470;2023-02-12T04:01:49;8.10;99.90
28189;DHT22;15471;51.166;4.470;2023-02-12T04:04:16;8.20;99.90
28189;DHT22;15471;51.166;4.470;2023-02-12T04:06:43;8.20;99.90
28189;DHT22;15471;51.166;4.470;2023-02-12T04:09:11;8.30;99.90
28189;DHT22;15471;51.166;4.470;2023-02-12T04:12:02;8.40;99.90
28189;DHT22;15471;51.166;4.470;2023-02-12T04:17:35;8.50;99.90
28189;DHT22;15471;51.166;4.470;2023-02-12T04:31:00;8.50;99.90
28189;DHT22;15471;51.166;4.470;2023-02-12T04:33:38;8.50;99.90
28189;DHT22;15471;51.166;4.470;2023-02-12T04:36:11;8.60;99.90
28189;DHT22;15471;51.166;4.470;2023-02-12T04:38:42;8.60;99.90
28189;DHT22;15471;51.166;4.470;2023-02-12T04:41:11;8.50;99.90
28189;DHT22;15471;51.166;4.470;2023-02-12T04:43:37;8.50;99.90
28189;DHT22;15471;51.166;4.470;2023-02-12T04:46:05;8.60;99.90
28189;DHT22;15471;51.166;4.470;2023-02-12T04:48:31;8.50;99.90
28189;DHT22;15471;51.166;4.470;2023-02-12T04:50:59;8.40;99.90
28189;DHT22;15471;51.166;4.470;2023-02-12T04:53:24;8.40;99.90
28189;DHT22;15471;51.166;4.470;2023-02-12T04:55:50;8.40;99.90
28189;DHT22;15471;51.166;4.470;2023-02-12T04:58:17;8.30;99.90
28189;DHT22;15471;51.166;4.470;2023-02-12T05:00:43;8.40;99.90
28189;DHT22;15471;51.166;4.470;2023-02-12T05:03:08;8.30;99.90
28189;DHT22;15471;51.166;4.470;2023-02-12T05:05:34;8.40;99.90
28189;DHT22;15471;51.166;4.470;2023-02-12T05:08:00;8.40;99.90
28189;DHT22;15471;51.166;4.470;2023-02-12T05:10:26;8.40;99.90
28189;DHT22;15471;51.166;4.470;2023-02-12T05:12:53;8.40;99.90
28189;DHT22;15471;51.166;4.470;2023-02-12T05:15:19;8.40;99.90
28189;DHT22;15471;51.166;4.470;2023-02-12T05:17:45;8.50;99.90
28189;DHT22;15471;51.166;4.470;2023-02-12T05:20:12;8.50;99.90
28189;DHT22;15471;51.166;4.470;2023-02-12T05:22:38;8.40;99.90
28189;DHT22;15471;51.166;4.470;2023-02-12T05:25:05;8.50;99.90
28189;DHT22;15471;51.166;4.470;2023-02-12T05:27:30;8.40;99.90
28189;DHT22;15471;51.166;4.470;2023-02-12T05:29:56;8.40;99.90
28189;DHT22;15471;51.166;4.470;2023-02-12T05:32:23;8.40;99.90
28189;DHT22;15471;51.166;4.470;2023-02-12T05:34:49;8.40;99.90
28189;DHT22;15471;51.166;4.470;2023-02-12T05:37:15;8.40;99.90
28189;DHT22;15471;51.166;4.470;2023-02-12T05:39:40;8.40;99.90
28189;DHT22;15471;51.166;4.470;2023-02-12T05:42:06;8.40;99.90
28189;DHT22;15471;51.166;4.470;2023-02-12T05:44:32;8.40;99.90
28189;DHT22;15471;51.166;4.470;2023-02-12T05:46:58;8.40;99.90
28189;DHT22;15471;51.166;4.470;2023-02-12T05:49:24;8.40;99.90
28189;DHT22;15471;51.166;4.470;2023-02-12T05:51:50;8.40;99.90
28189;DHT22;15471;51.166;4.470;2023-02-12T05:54:16;8.30;99.90
28189;DHT22;15471;51.166;4.470;2023-02-12T05:56:44;8.40;99.90
28189;DHT22;15471;51.166;4.470;2023-02-12T05:59:19;8.30;99.90
28189;DHT22;15471;51.166;4.470;2023-02-12T06:01:48;8.30;99.90
28189;DHT22;15471;51.166;4.470;2023-02-12T06:04:23;8.30;99.90
28189;DHT22;15471;51.166;4.470;2023-02-12T06:06:53;8.30;99.90
28189;DHT22;15471;51.166;4.470;2023-02-12T06:09:20;8.30;99.90
28189;DHT22;15471;51.166;4.470;2023-02-12T06:11:46;8.30;99.90
28189;DHT22;15471;51.166;4.470;2023-02-12T06:14:15;8.30;99.90
28189;DHT22;15471;51.166;4.470;2023-02-12T06:16:44;8.30;99.90
28189;DHT22;15471;51.166;4.470;2023-02-12T06:19:11;8.20;99.90
28189;DHT22;15471;51.166;4.470;2023-02-12T06:21:37;8.30;99.90
28189;DHT22;15471;51.166;4.470;2023-02-12T06:24:03;8.30;99.90
28189;DHT22;15471;51.166;4.470;2023-02-12T06:26:29;8.30;99.90
28189;DHT22;15471;51.166;4.470;2023-02-12T06:28:55;8.40;99.90
28189;DHT22;15471;51.166;4.470;2023-02-12T06:31:27;8.40;99.90
28189;DHT22;15471;51.166;4.470;2023-02-12T06:33:54;8.40;99.90
28189;DHT22;15471;51.166;4.470;2023-02-12T06:36:21;8.40;99.90
28189;DHT22;15471;51.166;4.470;2023-02-12T06:38:47;8.40;99.90
28189;DHT22;15471;51.166;4.470;2023-02-12T06:41:13;8.50;99.90
28189;DHT22;15471;51.166;4.470;2023-02-12T06:43:39;8.40;99.90
28189;DHT22;15471;51.166;4.470;2023-02-12T06:46:05;8.50;99.90
28189;DHT22;15471;51.166;4.470;2023-02-12T06:48:32;8.40;99.90
28189;DHT22;15471;51.166;4.470;2023-02-12T06:51:08;8.40;99.90
28189;DHT22;15471;51.166;4.470;2023-02-12T06:53:35;8.40;99.90
28189;DHT22;15471;51.166;4.470;2023-02-12T06:56:02;8.30;99.90
28189;DHT22;15471;51.166;4.470;2023-02-12T06:58:28;8.30;99.90
28189;DHT22;15471;51.166;4.470;2023-02-12T07:00:54;8.30;99.90
28189;DHT22;15471;51.166;4.470;2023-02-12T07:03:20;8.30;99.90
28189;DHT22;15471;51.166;4.470;2023-02-12T07:05:46;8.30;99.90
28189;DHT22;15471;51.166;4.470;2023-02-12T07:08:13;8.30;99.90
28189;DHT22;15471;51.166;4.470;2023-02-12T07:10:39;8.20;99.90
28189;DHT22;15471;51.166;4.470;2023-02-12T07:13:05;8.30;99.90
28189;DHT22;15471;51.166;4.470;2023-02-12T07:15:31;8.30;99.90
28189;DHT22;15471;51.166;4.470;2023-02-12T07:17:57;8.20;99.90
28189;DHT22;15471;51.166;4.470;2023-02-12T07:20:22;8.20;99.90
28189;DHT22;15471;51.166;4.470;2023-02-12T07:22:48;8.30;99.90
28189;DHT22;15471;51.166;4.470;2023-02-12T07:25:14;8.20;99.90
28189;DHT22;15471;51.166;4.470;2023-02-12T07:27:40;8.20;99.90
28189;DHT22;15471;51.166;4.470;2023-02-12T07:30:06;8.20;99.90
28189;DHT22;15471;51.166;4.470;2023-02-12T07:32:33;8.30;99.90
28189;DHT22;15471;51.166;4.470;2023-02-12T07:34:59;8.30;99.90
28189;DHT22;15471;51.166;4.470;2023-02-12T07:37:25;8.30;99.90
28189;DHT22;15471;51.166;4.470;2023-02-12T07:39:51;8.30;99.90
28189;DHT22;15471;51.166;4.470;2023-02-12T07:42:17;8.30;99.90
28189;DHT22;15471;51.166;4.470;2023-02-12T07:44:47;8.30;99.90
28189;DHT22;15471;51.166;4.470;2023-02-12T07:47:15;8.30;99.90
28189;DHT22;15471;51.166;4.470;2023-02-12T07:49:40;8.30;99.90
28189;DHT22;15471;51.166;4.470;2023-02-12T07:52:06;8.40;99.90
28189;DHT22;15471;51.166;4.470;2023-02-12T07:54:32;8.40;99.90
28189;DHT22;15471;51.166;4.470;2023-02-12T07:56:58;8.40;99.90
28189;DHT22;15471;51.166;4.470;2023-02-12T07:59:25;8.40;99.90
28189;DHT22;15471;51.166;4.470;2023-02-12T08:01:52;8.50;99.90
28189;DHT22;15471;51.166;4.470;2023-02-12T08:04:20;8.50;99.90
28189;DHT22;15471;51.166;4.470;2023-02-12T08:06:49;8.50;99.90
28189;DHT22;15471;51.166;4.470;2023-02-12T08:09:18;8.50;99.90
28189;DHT22;15471;51.166;4.470;2023-02-12T08:11:45;8.50;99.90
28189;DHT22;15471;51.166;4.470;2023-02-12T08:14:13;8.50;99.90
28189;DHT22;15471;51.166;4.470;2023-02-12T08:16:41;8.60;99.90
28189;DHT22;15471;51.166;4.470;2023-02-12T08:19:08;8.70;99.90
28189;DHT22;15471;51.166;4.470;2023-02-12T08:21:34;8.70;99.90
28189;DHT22;15471;51.166;4.470;2023-02-12T08:24:01;8.70;99.90
28189;DHT22;15471;51.166;4.470;2023-02-12T08:26:32;8.70;99.90
28189;DHT22;15471;51.166;4.470;2023-02-12T08:29:03;8.70;99.90
28189;DHT22;15471;51.166;4.470;2023-02-12T08:31:39;8.70;99.90
28189;DHT22;15471;51.166;4.470;2023-02-12T08:34:05;8.80;99.90
28189;DHT22;15471;51.166;4.470;2023-02-12T08:36:40;8.90;99.90
28189;DHT22;15471;51.166;4.470;2023-02-12T08:39:06;8.90;99.90
28189;DHT22;15471;51.166;4.470;2023-02-12T08:41:33;9.00;99.90
28189;DHT22;15471;51.166;4.470;2023-02-12T08:44:01;9.10;99.90
28189;DHT22;15471;51.166;4.470;2023-02-12T08:46:33;9.10;99.90
28189;DHT22;15471;51.166;4.470;2023-02-12T08:49:00;9.20;99.90
28189;DHT22;15471;51.166;4.470;2023-02-12T08:51:29;9.20;99.90
28189;DHT22;15471;51.166;4.470;2023-02-12T08:53:59;9.30;99.90
28189;DHT22;15471;51.166;4.470;2023-02-12T08:56:27;9.40;99.90
28189;DHT22;15471;51.166;4.470;2023-02-12T08:58:55;9.50;99.90
28189;DHT22;15471;51.166;4.470;2023-02-12T09:01:24;9.60;99.90
28189;DHT22;15471;51.166;4.470;2023-02-12T09:03:52;9.60;99.90
28189;DHT22;15471;51.166;4.470;2023-02-12T09:06:20;9.70;99.90
28189;DHT22;15471;51.166;4.470;2023-02-12T09:08:47;9.80;99.90
28189;DHT22;15471;51.166;4.470;2023-02-12T09:11:21;9.80;99.90
28189;DHT22;15471;51.166;4.470;2023-02-12T09:14:00;9.80;99.90
28189;DHT22;15471;51.166;4.470;2023-02-12T09:16:28;9.60;99.90
28189;DHT22;15471;51.166;4.470;2023-02-12T09:18:54;9.40;99.90
28189;DHT22;15471;51.166;4.470;2023-02-12T09:21:20;9.50;99.90
28189;DHT22;15471;51.166;4.470;2023-02-12T09:23:47;9.50;99.90
28189;DHT22;15471;51.166;4.470;2023-02-12T09:26:15;9.70;99.90
28189;DHT22;15471;51.166;4.470;2023-02-12T09:28:42;9.80;99.90
28189;DHT22;15471;51.166;4.470;2023-02-12T09:31:11;9.90;99.90
28189;DHT22;15471;51.166;4.470;2023-02-12T09:33:38;9.90;99.90
28189;DHT22;15471;51.166;4.470;2023-02-12T09:36:09;9.90;99.90
28189;DHT22;15471;51.166;4.470;2023-02-12T09:38:35;9.90;99.90
28189;DHT22;15471;51.166;4.470;2023-02-12T09:43:43;9.80;99.90
28189;DHT22;15471;51.166;4.470;2023-02-12T09:46:32;9.80;99.90
28189;DHT22;15471;51.166;4.470;2023-02-12T09:51:52;10.10;99.90
28189;DHT22;15471;51.166;4.470;2023-02-12T09:54:26;10.20;99.90
28189;DHT22;15471;51.166;4.470;2023-02-12T09:56:58;10.00;99.90
28189;DHT22;15471;51.166;4.470;2023-02-12T09:59:35;9.80;99.90
28189;DHT22;15471;51.166;4.470;2023-02-12T10:02:13;9.80;99.90
28189;DHT22;15471;51.166;4.470;2023-02-12T10:04:39;9.70;99.90
28189;DHT22;15471;51.166;4.470;2023-02-12T10:21:08;9.70;99.90
28189;DHT22;15471;51.166;4.470;2023-02-12T10:26:47;9.60;99.90
28189;DHT22;15471;51.166;4.470;2023-02-12T10:29:24;9.60;99.90
28189;DHT22;15471;51.166;4.470;2023-02-12T10:31:54;9.50;99.90
28189;DHT22;15471;51.166;4.470;2023-02-12T10:34:24;9.40;99.90
28189;DHT22;15471;51.166;4.470;2023-02-12T10:36:55;9.20;99.90
28189;DHT22;15471;51.166;4.470;2023-02-12T10:39:26;9.20;99.90
28189;DHT22;15471;51.166;4.470;2023-02-12T10:42:20;9.20;99.90
28189;DHT22;15471;51.166;4.470;2023-02-12T10:44:50;9.20;99.90
28189;DHT22;15471;51.166;4.470;2023-02-12T10:47:19;9.40;99.90
28189;DHT22;15471;51.166;4.470;2023-02-12T10:50:00;9.30;99.90
28189;DHT22;15471;51.166;4.470;2023-02-12T10:52:45;9.50;99.90
28189;DHT22;15471;51.166;4.470;2023-02-12T10:55:27;9.70;99.90
28189;DHT22;15471;51.166;4.470;2023-02-12T10:57:54;9.90;99.90
28189;DHT22;15471;51.166;4.470;2023-02-12T11:00:30;10.00;99.90
28189;DHT22;15471;51.166;4.470;2023-02-12T11:03:04;10.10;99.90
28189;DHT22;15471;51.166;4.470;2023-02-12T11:05:35;9.90;99.90
28189;DHT22;15471;51.166;4.470;2023-02-12T11:08:01;9.90;99.90
28189;DHT22;15471;51.166;4.470;2023-02-12T11:10:34;10.10;99.90
28189;DHT22;15471;51.166;4.470;2023-02-12T11:13:02;10.30;99.90
28189;DHT22;15471;51.166;4.470;2023-02-12T11:15:47;10.40;99.90
28189;DHT22;15471;51.166;4.470;2023-02-12T11:18:24;10.50;99.90
28189;DHT22;15471;51.166;4.470;2023-02-12T11:20:57;10.60;99.90
28189;DHT22;15471;51.166;4.470;2023-02-12T11:23:30;10.80;99.90
28189;DHT22;15471;51.166;4.470;2023-02-12T11:26:03;10.90;99.90
28189;DHT22;15471;51.166;4.470;2023-02-12T11:28:31;11.00;99.90
28189;DHT22;15471;51.166;4.470;2023-02-12T11:31:00;10.70;99.90
28189;DHT22;15471;51.166;4.470;2023-02-12T11:33:35;10.30;99.90
28189;DHT22;15471;51.166;4.470;2023-02-12T11:38:59;10.50;99.90
28189;DHT22;15471;51.166;4.470;2023-02-12T11:41:35;10.30;99.90
28189;DHT22;15471;51.166;4.470;2023-02-12T11:46:34;10.70;99.90
28189;DHT22;15471;51.166;4.470;2023-02-12T11:49:01;10.80;99.90
28189;DHT22;15471;51.166;4.470;2023-02-12T11:51:30;10.90;99.90
28189;DHT22;15471;51.166;4.470;2023-02-12T11:53:59;10.60;99.90
28189;DHT22;15471;51.166;4.470;2023-02-12T11:56:44;10.50;99.90
28189;DHT22;15471;51.166;4.470;2023-02-12T12:01:52;10.50;99.90
28189;DHT22;15471;51.166;4.470;2023-02-12T12:04:22;10.50;99.90
28189;DHT22;15471;51.166;4.470;2023-02-12T12:15:27;11.00;99.90
28189;DHT22;15471;51.166;4.470;2023-02-12T12:18:20;10.90;99.90
28189;DHT22;15471;51.166;4.470;2023-02-12T12:23:41;10.70;99.90
28189;DHT22;15471;51.166;4.470;2023-02-12T12:26:23;10.50;99.90
28189;DHT22;15471;51.166;4.470;2023-02-12T12:28:59;10.60;99.90
28189;DHT22;15471;51.166;4.470;2023-02-12T12:31:36;10.80;99.90
28189;DHT22;15471;51.166;4.470;2023-02-12T12:34:14;10.80;99.90
28189;DHT22;15471;51.166;4.470;2023-02-12T13:10:24;11.40;99.90
28189;DHT22;15471;51.166;4.470;2023-02-12T13:13:27;11.40;99.90
28189;DHT22;15471;51.166;4.470;2023-02-12T13:16:28;11.50;99.90
28189;DHT22;15471;51.166;4.470;2023-02-12T13:26:56;11.50;99.90
28189;DHT22;15471;51.166;4.470;2023-02-12T13:29:39;11.50;99.90
28189;DHT22;15471;51.166;4.470;2023-02-12T13:32:09;11.50;99.90
28189;DHT22;15471;51.166;4.470;2023-02-12T13:34:37;11.50;99.90
28189;DHT22;15471;51.166;4.470;2023-02-12T13:37:08;11.60;99.90
28189;DHT22;15471;51.166;4.470;2023-02-12T13:39:40;11.50;99.90
28189;DHT22;15471;51.166;4.470;2023-02-12T13:47:43;10.80;99.90
28189;DHT22;15471;51.166;4.470;2023-02-12T13:51:25;10.90;99.90
28189;DHT22;15471;51.166;4.470;2023-02-12T13:53:43;11.00;99.90
28189;DHT22;15471;51.166;4.470;2023-02-12T13:56:16;11.00;99.90
28189;DHT22;15471;51.166;4.470;2023-02-12T13:58:52;10.90;99.90
28189;DHT22;15471;51.166;4.470;2023-02-12T14:01:39;10.60;99.90
28189;DHT22;15471;51.166;4.470;2023-02-12T14:06:54;10.80;99.90
28189;DHT22;15471;51.166;4.470;2023-02-12T14:09:28;10.70;99.90
28189;DHT22;15471;51.166;4.470;2023-02-12T14:11:54;10.70;99.90
28189;DHT22;15471;51.166;4.470;2023-02-12T14:16:51;10.70;99.90
28189;DHT22;15471;51.166;4.470;2023-02-12T14:19:52;10.80;99.90
28189;DHT22;15471;51.166;4.470;2023-02-12T14:24:54;11.10;99.90
28189;DHT22;15471;51.166;4.470;2023-02-12T14:27:33;11.00;99.90
28189;DHT22;15471;51.166;4.470;2023-02-12T14:37:56;10.30;99.90
28189;DHT22;15471;51.166;4.470;2023-02-12T14:43:40;10.30;99.90
28189;DHT22;15471;51.166;4.470;2023-02-12T14:51:35;10.70;99.90
28189;DHT22;15471;51.166;4.470;2023-02-12T14:54:04;10.70;99.90
28189;DHT22;15471;51.166;4.470;2023-02-12T14:56:43;10.80;99.90
28189;DHT22;15471;51.166;4.470;2023-02-12T14:59:20;10.90;99.90
28189;DHT22;15471;51.166;4.470;2023-02-12T15:01:50;10.90;99.90
28189;DHT22;15471;51.166;4.470;2023-02-12T15:04:26;10.90;99.90
28189;DHT22;15471;51.166;4.470;2023-02-12T15:06:57;10.70;99.90
28189;DHT22;15471;51.166;4.470;2023-02-12T15:09:44;10.50;99.90
28189;DHT22;15471;51.166;4.470;2023-02-12T15:12:20;10.40;99.90
28189;DHT22;15471;51.166;4.470;2023-02-12T15:15:09;10.30;99.90
28189;DHT22;15471;51.166;4.470;2023-02-12T15:17:39;10.30;99.90
28189;DHT22;15471;51.166;4.470;2023-02-12T15:20:44;10.40;99.90
28189;DHT22;15471;51.166;4.470;2023-02-12T15:23:44;10.50;99.90
28189;DHT22;15471;51.166;4.470;2023-02-12T15:26:21;10.30;99.90
28189;DHT22;15471;51.166;4.470;2023-02-12T15:28:50;10.40;99.90
28189;DHT22;15471;51.166;4.470;2023-02-12T15:31:20;10.20;99.90
28189;DHT22;15471;51.166;4.470;2023-02-12T15:33:49;10.20;99.90
28189;DHT22;15471;51.166;4.470;2023-02-12T15:36:19;10.30;99.90
28189;DHT22;15471;51.166;4.470;2023-02-12T15:38:52;10.30;99.90
28189;DHT22;15471;51.166;4.470;2023-02-12T15:41:36;10.20;99.90
28189;DHT22;15471;51.166;4.470;2023-02-12T15:47:12;10.30;99.90
28189;DHT22;15471;51.166;4.470;2023-02-12T15:49:40;10.00;99.90
28189;DHT22;15471;51.166;4.470;2023-02-12T15:52:19;10.00;99.90
28189;DHT22;15471;51.166;4.470;2023-02-12T15:54:46;10.10;99.90
28189;DHT22;15471;51.166;4.470;2023-02-12T15:57:23;10.00;99.90
28189;DHT22;15471;51.166;4.470;2023-02-12T15:59:51;9.90;99.90
28189;DHT22;15471;51.166;4.470;2023-02-12T16:02:21;9.80;99.90
28189;DHT22;15471;51.166;4.470;2023-02-12T16:04:50;9.80;99.90
28189;DHT22;15471;51.166;4.470;2023-02-12T16:07:16;9.90;99.90
28189;DHT22;15471;51.166;4.470;2023-02-12T16:09:42;9.70;99.90
28189;DHT22;15471;51.166;4.470;2023-02-12T16:12:13;9.70;99.90
28189;DHT22;15471;51.166;4.470;2023-02-12T16:14:42;9.60;99.90
28189;DHT22;15471;51.166;4.470;2023-02-12T16:17:30;9.70;99.90
28189;DHT22;15471;51.166;4.470;2023-02-12T16:22:44;9.70;99.90
28189;DHT22;15471;51.166;4.470;2023-02-12T16:25:37;9.80;99.90
28189;DHT22;15471;51.166;4.470;2023-02-12T16:28:16;9.50;99.90
28189;DHT22;15471;51.166;4.470;2023-02-12T16:30:46;9.40;99.90
28189;DHT22;15471;51.166;4.470;2023-02-12T16:36:03;9.30;99.90
28189;DHT22;15471;51.166;4.470;2023-02-12T16:38:47;9.40;99.90
28189;DHT22;15471;51.166;4.470;2023-02-12T16:43:47;9.30;99.90
28189;DHT22;15471;51.166;4.470;2023-02-12T16:46:15;9.30;99.90
28189;DHT22;15471;51.166;4.470;2023-02-12T16:48:43;9.30;99.90
28189;DHT22;15471;51.166;4.470;2023-02-12T16:51:35;9.20;99.90
28189;DHT22;15471;51.166;4.470;2023-02-12T16:54:03;9.10;99.90
28189;DHT22;15471;51.166;4.470;2023-02-12T16:56:32;9.00;99.90
28189;DHT22;15471;51.166;4.470;2023-02-12T16:58:59;9.00;99.90
28189;DHT22;15471;51.166;4.470;2023-02-12T17:01:29;9.20;99.90
28189;DHT22;15471;51.166;4.470;2023-02-12T17:03:56;9.30;99.90
28189;DHT22;15471;51.166;4.470;2023-02-12T17:06:25;9.40;99.90
28189;DHT22;15471;51.166;4.470;2023-02-12T17:08:52;9.40;99.90
28189;DHT22;15471;51.166;4.470;2023-02-12T17:11:19;9.30;99.90
28189;DHT22;15471;51.166;4.470;2023-02-12T17:13:47;9.20;99.90
28189;DHT22;15471;51.166;4.470;2023-02-12T17:16:13;9.20;99.90
28189;DHT22;15471;51.166;4.470;2023-02-12T17:18:40;9.30;99.90
28189;DHT22;15471;51.166;4.470;2023-02-12T17:21:30;9.20;99.90
28189;DHT22;15471;51.166;4.470;2023-02-12T17:23:57;9.20;99.90
28189;DHT22;15471;51.166;4.470;2023-02-12T17:26:23;9.10;99.90
28189;DHT22;15471;51.166;4.470;2023-02-12T17:28:49;9.10;99.90
28189;DHT22;15471;51.166;4.470;2023-02-12T17:31:15;9.00;99.90
28189;DHT22;15471;51.166;4.470;2023-02-12T17:33:41;9.00;99.90
28189;DHT22;15471;51.166;4.470;2023-02-12T17:36:10;9.10;99.90
28189;DHT22;15471;51.166;4.470;2023-02-12T17:38:36;9.00;99.90
28189;DHT22;15471;51.166;4.470;2023-02-12T17:41:10;9.00;99.90
28189;DHT22;15471;51.166;4.470;2023-02-12T17:43:39;9.00;99.90
28189;DHT22;15471;51.166;4.470;2023-02-12T17:46:19;9.10;99.90
28189;DHT22;15471;51.166;4.470;2023-02-12T17:48:46;9.10;99.90
28189;DHT22;15471;51.166;4.470;2023-02-12T17:51:12;9.10;99.90
28189;DHT22;15471;51.166;4.470;2023-02-12T17:53:39;9.10;99.90
28189;DHT22;15471;51.166;4.470;2023-02-12T17:56:12;9.20;99.90
28189;DHT22;15471;51.166;4.470;2023-02-12T17:58:40;9.20;99.90
28189;DHT22;15471;51.166;4.470;2023-02-12T18:01:08;9.20;99.90
28189;DHT22;15471;51.166;4.470;2023-02-12T18:03:34;9.10;99.90
28189;DHT22;15471;51.166;4.470;2023-02-12T18:06:00;9.20;99.90
28189;DHT22;15471;51.166;4.470;2023-02-12T18:08:27;9.20;99.90
28189;DHT22;15471;51.166;4.470;2023-02-12T18:10:53;9.20;99.90
28189;DHT22;15471;51.166;4.470;2023-02-12T18:13:19;9.30;99.90
28189;DHT22;15471;51.166;4.470;2023-02-12T18:15:45;9.20;99.90
28189;DHT22;15471;51.166;4.470;2023-02-12T18:18:11;9.10;99.90
28189;DHT22;15471;51.166;4.470;2023-02-12T18:20:39;9.10;99.90
28189;DHT22;15471;51.166;4.470;2023-02-12T18:23:05;9.00;99.90
28189;DHT22;15471;51.166;4.470;2023-02-12T18:25:34;9.10;99.90
28189;DHT22;15471;51.166;4.470;2023-02-12T18:28:00;9.10;99.90
28189;DHT22;15471;51.166;4.470;2023-02-12T18:30:26;9.00;99.90
28189;DHT22;15471;51.166;4.470;2023-02-12T18:32:52;9.10;99.90
28189;DHT22;15471;51.166;4.470;2023-02-12T18:35:18;9.00;99.90
28189;DHT22;15471;51.166;4.470;2023-02-12T18:37:44;8.80;99.90
28189;DHT22;15471;51.166;4.470;2023-02-12T18:40:12;8.90;99.90
28189;DHT22;15471;51.166;4.470;2023-02-12T18:42:38;8.80;99.90
28189;DHT22;15471;51.166;4.470;2023-02-12T18:45:05;8.80;99.90
28189;DHT22;15471;51.166;4.470;2023-02-12T18:47:32;8.90;99.90
28189;DHT22;15471;51.166;4.470;2023-02-12T18:49:58;8.70;99.90
28189;DHT22;15471;51.166;4.470;2023-02-12T18:52:24;8.80;99.90
28189;DHT22;15471;51.166;4.470;2023-02-12T18:54:51;8.80;99.90
28189;DHT22;15471;51.166;4.470;2023-02-12T18:57:18;8.70;99.90
28189;DHT22;15471;51.166;4.470;2023-02-12T18:59:44;8.80;99.90
28189;DHT22;15471;51.166;4.470;2023-02-12T19:02:11;8.70;99.90
28189;DHT22;15471;51.166;4.470;2023-02-12T19:04:38;8.70;99.90
28189;DHT22;15471;51.166;4.470;2023-02-12T19:07:04;8.70;99.90